Etusivu
METAR-TAF:

METAR-TAF

Lentoasemat :

Waseca Municipal Airport

Waseca, Minnesota, Yhdysvallat

Leveyspiiri: 44-04-24N, Pituuspiiri: 093-33-11W, korkeus merenpinnasta: 343 m

Tämänhetkinen sää

Tämä raportti tehtiin 5 minuuttia sitten, kello 07.36 UTC
Tuuli 15 kn kaakosta puuskistuen 21 kn:hen
Lämpötila 6°C
Kosteus 70%
Ilmanpaine 1014 hPa
Näkyvyys: 16.1 km
selkeää

METAR: KACQ 020736Z AUTO 13015G21KT 10SM CLR 06/01 A2994 RMK AO2

Aika: 02:41 (07:41 UTC)


TAF: puuttuu

Säähavainnot ja -ennusteet yli 4000 lentoasemalta (METAR- ja TAF-raportit).

Käytössä olevat sääasemat on merkitty karttaan keltaisilla ja punaisilla pisteillä.

Aseta hiiri pisteen päälle nähdäksesi sääaseman nimen.

Klikkaa sitten nähdäksesi säähavainnot ja -ennusteet.

Kartan vaihtaminen: klikkaa mustalla rastilla varustettuja vihreitä pisteitä, niin voit zoomata sisään; viivalla varustettua vihreää pistettä, niin voit zoomata ulos tai vihreitä nuolia, niin pääset viereisille kartoille.


METAR-TAF: